sensor_id;sensor_type;location;lat;lon;timestamp;P1;durP1;ratioP1;P2;durP2;ratioP2
66145;SDS011;52948;60.040;30.320;2023-04-10T00:04:13;5.53;;;1.70;;
66145;SDS011;52948;60.040;30.320;2023-04-10T00:09:16;2.78;;;1.60;;
66145;SDS011;52948;60.040;30.320;2023-04-10T00:14:18;2.35;;;1.70;;
66145;SDS011;52948;60.040;30.320;2023-04-10T00:19:23;2.10;;;1.67;;
66145;SDS011;52948;60.040;30.320;2023-04-10T00:24:26;3.92;;;1.58;;
66145;SDS011;52948;60.040;30.320;2023-04-10T00:29:28;6.05;;;1.67;;
66145;SDS011;52948;60.040;30.320;2023-04-10T00:34:31;3.97;;;1.70;;
66145;SDS011;52948;60.040;30.320;2023-04-10T00:39:33;1.98;;;1.30;;
66145;SDS011;52948;60.040;30.320;2023-04-10T00:44:35;2.05;;;1.27;;
66145;SDS011;52948;60.040;30.320;2023-04-10T00:49:39;2.70;;;1.90;;
66145;SDS011;52948;60.040;30.320;2023-04-10T00:54:43;2.33;;;1.50;;
66145;SDS011;52948;60.040;30.320;2023-04-10T00:59:45;2.92;;;1.55;;
66145;SDS011;52948;60.040;30.320;2023-04-10T01:04:49;3.17;;;1.80;;
66145;SDS011;52948;60.040;30.320;2023-04-10T01:15:20;5.10;;;2.30;;
66145;SDS011;52948;60.040;30.320;2023-04-10T01:20:24;2.30;;;1.45;;
66145;SDS011;52948;60.040;30.320;2023-04-10T01:30:47;1.95;;;1.60;;
66145;SDS011;52948;60.040;30.320;2023-04-10T01:35:52;4.35;;;1.80;;
66145;SDS011;52948;60.040;30.320;2023-04-10T01:40:59;4.57;;;1.90;;
66145;SDS011;52948;60.040;30.320;2023-04-10T01:46:04;3.55;;;1.75;;
66145;SDS011;52948;60.040;30.320;2023-04-10T01:51:07;4.32;;;1.63;;
66145;SDS011;52948;60.040;30.320;2023-04-10T01:56:11;3.38;;;1.80;;
66145;SDS011;52948;60.040;30.320;2023-04-10T02:01:20;3.25;;;1.92;;
66145;SDS011;52948;60.040;30.320;2023-04-10T02:06:26;2.67;;;1.60;;
66145;SDS011;52948;60.040;30.320;2023-04-10T02:11:54;4.28;;;2.40;;
66145;SDS011;52948;60.040;30.320;2023-04-10T02:17:00;3.38;;;1.55;;
66145;SDS011;52948;60.040;30.320;2023-04-10T02:22:03;2.28;;;1.38;;
66145;SDS011;52948;60.040;30.320;2023-04-10T02:27:08;3.03;;;1.83;;
66145;SDS011;52948;60.040;30.320;2023-04-10T02:32:10;4.88;;;1.92;;
66145;SDS011;52948;60.040;30.320;2023-04-10T02:37:14;3.83;;;1.98;;
66145;SDS011;52948;60.040;30.320;2023-04-10T02:42:16;4.72;;;1.58;;
66145;SDS011;52948;60.040;30.320;2023-04-10T02:47:19;2.97;;;1.88;;
66145;SDS011;52948;60.040;30.320;2023-04-10T02:52:23;4.22;;;1.70;;
66145;SDS011;52948;60.040;30.320;2023-04-10T02:57:25;3.08;;;1.88;;
66145;SDS011;52948;60.040;30.320;2023-04-10T03:02:29;2.92;;;1.58;;
66145;SDS011;52948;60.040;30.320;2023-04-10T03:07:36;2.53;;;1.70;;
66145;SDS011;52948;60.040;30.320;2023-04-10T03:12:39;3.15;;;2.17;;
66145;SDS011;52948;60.040;30.320;2023-04-10T03:17:41;4.22;;;1.83;;
66145;SDS011;52948;60.040;30.320;2023-04-10T03:22:43;2.13;;;1.63;;
66145;SDS011;52948;60.040;30.320;2023-04-10T03:27:46;3.55;;;1.95;;
66145;SDS011;52948;60.040;30.320;2023-04-10T03:32:48;6.28;;;2.10;;
66145;SDS011;52948;60.040;30.320;2023-04-10T03:37:51;3.35;;;2.10;;
66145;SDS011;52948;60.040;30.320;2023-04-10T03:42:53;2.08;;;1.63;;
66145;SDS011;52948;60.040;30.320;2023-04-10T03:47:55;4.20;;;1.95;;
66145;SDS011;52948;60.040;30.320;2023-04-10T03:52:59;2.60;;;1.90;;
66145;SDS011;52948;60.040;30.320;2023-04-10T03:58:01;4.80;;;2.42;;
66145;SDS011;52948;60.040;30.320;2023-04-10T04:03:05;4.18;;;2.00;;
66145;SDS011;52948;60.040;30.320;2023-04-10T04:08:32;2.67;;;1.93;;
66145;SDS011;52948;60.040;30.320;2023-04-10T04:13:44;6.47;;;2.08;;
66145;SDS011;52948;60.040;30.320;2023-04-10T04:19:00;7.60;;;2.58;;
66145;SDS011;52948;60.040;30.320;2023-04-10T04:24:06;5.97;;;2.50;;
66145;SDS011;52948;60.040;30.320;2023-04-10T04:29:28;6.78;;;2.00;;
66145;SDS011;52948;60.040;30.320;2023-04-10T04:34:43;4.35;;;2.10;;
66145;SDS011;52948;60.040;30.320;2023-04-10T04:40:00;5.05;;;2.17;;
66145;SDS011;52948;60.040;30.320;2023-04-10T04:45:30;6.20;;;2.40;;
66145;SDS011;52948;60.040;30.320;2023-04-10T04:50:45;7.10;;;2.13;;
66145;SDS011;52948;60.040;30.320;2023-04-10T04:56:06;5.07;;;2.35;;
66145;SDS011;52948;60.040;30.320;2023-04-10T05:01:46;12.75;;;3.22;;
66145;SDS011;52948;60.040;30.320;2023-04-10T05:07:07;8.02;;;2.95;;
66145;SDS011;52948;60.040;30.320;2023-04-10T05:12:30;9.80;;;2.35;;
66145;SDS011;52948;60.040;30.320;2023-04-10T05:17:52;5.60;;;2.33;;
66145;SDS011;52948;60.040;30.320;2023-04-10T05:23:17;9.27;;;2.92;;
66145;SDS011;52948;60.040;30.320;2023-04-10T05:28:31;13.20;;;2.72;;
66145;SDS011;52948;60.040;30.320;2023-04-10T05:33:33;12.35;;;3.10;;
66145;SDS011;52948;60.040;30.320;2023-04-10T05:38:54;5.35;;;2.70;;
66145;SDS011;52948;60.040;30.320;2023-04-10T05:44:15;14.85;;;3.20;;
66145;SDS011;52948;60.040;30.320;2023-04-10T05:49:40;10.63;;;3.17;;
66145;SDS011;52948;60.040;30.320;2023-04-10T05:55:05;7.15;;;2.65;;
66145;SDS011;52948;60.040;30.320;2023-04-10T06:00:08;14.23;;;2.92;;
66145;SDS011;52948;60.040;30.320;2023-04-10T06:05:18;10.40;;;2.60;;
66145;SDS011;52948;60.040;30.320;2023-04-10T06:10:20;9.98;;;2.40;;
66145;SDS011;52948;60.040;30.320;2023-04-10T06:15:23;5.78;;;2.40;;
66145;SDS011;52948;60.040;30.320;2023-04-10T06:20:27;6.50;;;2.30;;
66145;SDS011;52948;60.040;30.320;2023-04-10T06:25:29;12.25;;;3.55;;
66145;SDS011;52948;60.040;30.320;2023-04-10T06:30:34;4.38;;;2.25;;
66145;SDS011;52948;60.040;30.320;2023-04-10T06:35:39;7.33;;;2.40;;
66145;SDS011;52948;60.040;30.320;2023-04-10T06:40:42;5.20;;;2.65;;
66145;SDS011;52948;60.040;30.320;2023-04-10T06:45:44;6.65;;;2.60;;
66145;SDS011;52948;60.040;30.320;2023-04-10T06:50:47;8.55;;;2.95;;
66145;SDS011;52948;60.040;30.320;2023-04-10T06:55:49;7.47;;;2.88;;
66145;SDS011;52948;60.040;30.320;2023-04-10T07:00:52;14.35;;;3.08;;
66145;SDS011;52948;60.040;30.320;2023-04-10T07:05:55;8.68;;;2.90;;
66145;SDS011;52948;60.040;30.320;2023-04-10T07:10:57;8.65;;;3.25;;
66145;SDS011;52948;60.040;30.320;2023-04-10T07:15:59;8.90;;;2.80;;
66145;SDS011;52948;60.040;30.320;2023-04-10T07:26:38;13.18;;;3.50;;
66145;SDS011;52948;60.040;30.320;2023-04-10T07:31:40;9.23;;;3.00;;
66145;SDS011;52948;60.040;30.320;2023-04-10T07:36:42;11.25;;;3.25;;
66145;SDS011;52948;60.040;30.320;2023-04-10T07:41:44;10.10;;;3.15;;
66145;SDS011;52948;60.040;30.320;2023-04-10T07:56:51;12.20;;;3.30;;
66145;SDS011;52948;60.040;30.320;2023-04-10T08:06:57;14.02;;;3.55;;
66145;SDS011;52948;60.040;30.320;2023-04-10T08:11:59;10.13;;;3.72;;
66145;SDS011;52948;60.040;30.320;2023-04-10T08:17:02;10.55;;;3.75;;
66145;SDS011;52948;60.040;30.320;2023-04-10T08:22:04;5.53;;;3.67;;
66145;SDS011;52948;60.040;30.320;2023-04-10T08:27:06;6.65;;;3.10;;
66145;SDS011;52948;60.040;30.320;2023-04-10T08:32:11;9.20;;;3.72;;
66145;SDS011;52948;60.040;30.320;2023-04-10T08:37:13;13.90;;;3.80;;
66145;SDS011;52948;60.040;30.320;2023-04-10T08:42:20;6.53;;;3.65;;
66145;SDS011;52948;60.040;30.320;2023-04-10T08:47:23;10.13;;;3.72;;
66145;SDS011;52948;60.040;30.320;2023-04-10T08:57:35;10.33;;;3.20;;
66145;SDS011;52948;60.040;30.320;2023-04-10T09:02:39;12.73;;;4.03;;
66145;SDS011;52948;60.040;30.320;2023-04-10T09:12:44;7.63;;;4.25;;
66145;SDS011;52948;60.040;30.320;2023-04-10T09:18:20;7.05;;;3.45;;
66145;SDS011;52948;60.040;30.320;2023-04-10T09:33:20;5.22;;;3.22;;
66145;SDS011;52948;60.040;30.320;2023-04-10T09:38:23;3.58;;;2.75;;
66145;SDS011;52948;60.040;30.320;2023-04-10T09:43:26;4.93;;;2.90;;
66145;SDS011;52948;60.040;30.320;2023-04-10T09:48:28;9.27;;;3.50;;
66145;SDS011;52948;60.040;30.320;2023-04-10T09:53:30;7.63;;;2.90;;
66145;SDS011;52948;60.040;30.320;2023-04-10T10:08:55;7.50;;;2.90;;
66145;SDS011;52948;60.040;30.320;2023-04-10T10:19:17;7.45;;;2.97;;
66145;SDS011;52948;60.040;30.320;2023-04-10T10:24:24;4.28;;;2.88;;
66145;SDS011;52948;60.040;30.320;2023-04-10T10:29:27;4.47;;;3.05;;
66145;SDS011;52948;60.040;30.320;2023-04-10T10:34:35;5.13;;;3.10;;
66145;SDS011;52948;60.040;30.320;2023-04-10T10:45:24;5.05;;;3.08;;
66145;SDS011;52948;60.040;30.320;2023-04-10T11:01:20;7.93;;;3.08;;
66145;SDS011;52948;60.040;30.320;2023-04-10T11:06:47;6.90;;;3.08;;
66145;SDS011;52948;60.040;30.320;2023-04-10T11:11:56;4.25;;;2.72;;
66145;SDS011;52948;60.040;30.320;2023-04-10T11:16:59;6.45;;;2.97;;
66145;SDS011;52948;60.040;30.320;2023-04-10T11:22:05;5.82;;;2.90;;
66145;SDS011;52948;60.040;30.320;2023-04-10T11:27:08;8.40;;;3.25;;
66145;SDS011;52948;60.040;30.320;2023-04-10T11:32:45;5.55;;;3.00;;
66145;SDS011;52948;60.040;30.320;2023-04-10T11:37:50;3.65;;;2.90;;
66145;SDS011;52948;60.040;30.320;2023-04-10T11:43:10;8.50;;;3.10;;
66145;SDS011;52948;60.040;30.320;2023-04-10T11:48:13;4.57;;;3.00;;
66145;SDS011;52948;60.040;30.320;2023-04-10T11:53:18;8.15;;;3.80;;
66145;SDS011;52948;60.040;30.320;2023-04-10T12:03:35;12.25;;;3.72;;
66145;SDS011;52948;60.040;30.320;2023-04-10T12:08:45;12.70;;;3.42;;
66145;SDS011;52948;60.040;30.320;2023-04-10T12:13:55;6.97;;;3.50;;
66145;SDS011;52948;60.040;30.320;2023-04-10T12:19:00;4.85;;;3.10;;
66145;SDS011;52948;60.040;30.320;2023-04-10T12:24:04;5.50;;;3.00;;
66145;SDS011;52948;60.040;30.320;2023-04-10T12:29:06;4.53;;;2.63;;
66145;SDS011;52948;60.040;30.320;2023-04-10T12:34:10;4.47;;;3.00;;
66145;SDS011;52948;60.040;30.320;2023-04-10T12:39:22;4.03;;;3.00;;
66145;SDS011;52948;60.040;30.320;2023-04-10T12:44:25;4.43;;;2.83;;
66145;SDS011;52948;60.040;30.320;2023-04-10T12:49:29;6.32;;;2.95;;
66145;SDS011;52948;60.040;30.320;2023-04-10T12:54:32;5.15;;;3.13;;
66145;SDS011;52948;60.040;30.320;2023-04-10T12:59:35;4.63;;;3.00;;
66145;SDS011;52948;60.040;30.320;2023-04-10T13:04:38;5.55;;;2.90;;
66145;SDS011;52948;60.040;30.320;2023-04-10T13:09:41;6.03;;;2.65;;
66145;SDS011;52948;60.040;30.320;2023-04-10T13:14:43;10.07;;;2.97;;
66145;SDS011;52948;60.040;30.320;2023-04-10T13:19:47;5.43;;;3.22;;
66145;SDS011;52948;60.040;30.320;2023-04-10T13:24:49;7.53;;;3.50;;
66145;SDS011;52948;60.040;30.320;2023-04-10T13:29:51;4.95;;;3.47;;
66145;SDS011;52948;60.040;30.320;2023-04-10T13:34:54;7.22;;;3.60;;
66145;SDS011;52948;60.040;30.320;2023-04-10T13:39:58;12.15;;;4.60;;
66145;SDS011;52948;60.040;30.320;2023-04-10T13:45:01;5.97;;;3.70;;
66145;SDS011;52948;60.040;30.320;2023-04-10T13:50:03;11.85;;;4.43;;
66145;SDS011;52948;60.040;30.320;2023-04-10T13:55:06;10.27;;;4.13;;
66145;SDS011;52948;60.040;30.320;2023-04-10T14:00:09;6.25;;;3.83;;
66145;SDS011;52948;60.040;30.320;2023-04-10T14:05:15;11.55;;;4.32;;
66145;SDS011;52948;60.040;30.320;2023-04-10T14:10:18;11.77;;;4.38;;
66145;SDS011;52948;60.040;30.320;2023-04-10T14:15:21;8.18;;;4.00;;
66145;SDS011;52948;60.040;30.320;2023-04-10T14:20:23;10.32;;;4.07;;
66145;SDS011;52948;60.040;30.320;2023-04-10T14:25:26;10.95;;;4.50;;
66145;SDS011;52948;60.040;30.320;2023-04-10T14:30:28;8.60;;;4.57;;
66145;SDS011;52948;60.040;30.320;2023-04-10T14:35:31;8.13;;;3.03;;
66145;SDS011;52948;60.040;30.320;2023-04-10T14:40:34;6.97;;;3.78;;
66145;SDS011;52948;60.040;30.320;2023-04-10T14:45:37;5.97;;;3.20;;
66145;SDS011;52948;60.040;30.320;2023-04-10T14:50:39;6.88;;;2.80;;
66145;SDS011;52948;60.040;30.320;2023-04-10T14:55:41;8.00;;;3.05;;
66145;SDS011;52948;60.040;30.320;2023-04-10T15:00:43;3.97;;;2.33;;
66145;SDS011;52948;60.040;30.320;2023-04-10T15:05:45;10.88;;;3.15;;
66145;SDS011;52948;60.040;30.320;2023-04-10T15:10:48;7.10;;;3.25;;
66145;SDS011;52948;60.040;30.320;2023-04-10T15:15:51;9.35;;;4.30;;
66145;SDS011;52948;60.040;30.320;2023-04-10T15:20:53;9.95;;;4.38;;
66145;SDS011;52948;60.040;30.320;2023-04-10T15:25:56;7.05;;;3.58;;
66145;SDS011;52948;60.040;30.320;2023-04-10T15:30:59;6.15;;;3.03;;
66145;SDS011;52948;60.040;30.320;2023-04-10T15:36:01;6.28;;;3.03;;
66145;SDS011;52948;60.040;30.320;2023-04-10T15:41:07;7.85;;;2.97;;
66145;SDS011;52948;60.040;30.320;2023-04-10T15:46:11;8.27;;;3.07;;
66145;SDS011;52948;60.040;30.320;2023-04-10T15:51:13;5.53;;;2.63;;
66145;SDS011;52948;60.040;30.320;2023-04-10T15:56:15;8.50;;;2.95;;
66145;SDS011;52948;60.040;30.320;2023-04-10T16:01:17;8.88;;;2.17;;
66145;SDS011;52948;60.040;30.320;2023-04-10T16:06:19;3.67;;;2.00;;
66145;SDS011;52948;60.040;30.320;2023-04-10T16:11:24;2.95;;;1.95;;
66145;SDS011;52948;60.040;30.320;2023-04-10T16:16:27;3.65;;;2.08;;
66145;SDS011;52948;60.040;30.320;2023-04-10T16:21:35;5.65;;;1.88;;
66145;SDS011;52948;60.040;30.320;2023-04-10T16:26:37;7.07;;;2.22;;
66145;SDS011;52948;60.040;30.320;2023-04-10T16:31:40;3.80;;;1.85;;
66145;SDS011;52948;60.040;30.320;2023-04-10T16:36:42;11.75;;;2.85;;
66145;SDS011;52948;60.040;30.320;2023-04-10T16:41:44;9.68;;;2.58;;
66145;SDS011;52948;60.040;30.320;2023-04-10T16:46:46;7.15;;;1.88;;
66145;SDS011;52948;60.040;30.320;2023-04-10T16:51:49;5.25;;;1.63;;
66145;SDS011;52948;60.040;30.320;2023-04-10T16:56:51;6.25;;;2.05;;
66145;SDS011;52948;60.040;30.320;2023-04-10T17:01:53;6.70;;;2.15;;
66145;SDS011;52948;60.040;30.320;2023-04-10T17:06:55;4.05;;;1.90;;
66145;SDS011;52948;60.040;30.320;2023-04-10T17:11:58;4.60;;;2.00;;
66145;SDS011;52948;60.040;30.320;2023-04-10T17:17:00;8.55;;;2.30;;
66145;SDS011;52948;60.040;30.320;2023-04-10T17:22:02;8.90;;;2.28;;
66145;SDS011;52948;60.040;30.320;2023-04-10T17:27:04;10.88;;;3.00;;
66145;SDS011;52948;60.040;30.320;2023-04-10T17:32:07;8.82;;;3.17;;
66145;SDS011;52948;60.040;30.320;2023-04-10T17:37:09;10.68;;;2.22;;
66145;SDS011;52948;60.040;30.320;2023-04-10T17:42:11;11.20;;;2.83;;
66145;SDS011;52948;60.040;30.320;2023-04-10T17:47:14;9.48;;;3.05;;
66145;SDS011;52948;60.040;30.320;2023-04-10T17:52:20;5.45;;;2.72;;
66145;SDS011;52948;60.040;30.320;2023-04-10T17:57:24;10.80;;;3.55;;
66145;SDS011;52948;60.040;30.320;2023-04-10T18:02:26;12.68;;;2.60;;
66145;SDS011;52948;60.040;30.320;2023-04-10T18:07:28;6.15;;;2.25;;
66145;SDS011;52948;60.040;30.320;2023-04-10T18:12:30;9.60;;;2.88;;
66145;SDS011;52948;60.040;30.320;2023-04-10T18:17:33;11.00;;;2.45;;
66145;SDS011;52948;60.040;30.320;2023-04-10T18:22:35;4.22;;;2.05;;
66145;SDS011;52948;60.040;30.320;2023-04-10T18:27:41;9.35;;;2.90;;
66145;SDS011;52948;60.040;30.320;2023-04-10T18:32:46;7.53;;;3.03;;
66145;SDS011;52948;60.040;30.320;2023-04-10T18:37:52;8.02;;;2.63;;
66145;SDS011;52948;60.040;30.320;2023-04-10T18:42:57;4.72;;;2.58;;
66145;SDS011;52948;60.040;30.320;2023-04-10T18:48:01;10.63;;;2.60;;
66145;SDS011;52948;60.040;30.320;2023-04-10T18:53:09;10.25;;;3.08;;
66145;SDS011;52948;60.040;30.320;2023-04-10T18:58:13;6.90;;;2.80;;
66145;SDS011;52948;60.040;30.320;2023-04-10T19:03:16;8.80;;;3.58;;
66145;SDS011;52948;60.040;30.320;2023-04-10T19:08:18;7.88;;;3.42;;
66145;SDS011;52948;60.040;30.320;2023-04-10T19:13:21;12.48;;;3.90;;
66145;SDS011;52948;60.040;30.320;2023-04-10T19:18:25;10.27;;;4.70;;
66145;SDS011;52948;60.040;30.320;2023-04-10T19:23:28;15.32;;;4.70;;
